Time;durP1;ratioP1;P1;durP2;ratioP2;P2;SDS_P1;SDS_P2;PMS_P1;PMS_P2;Temp;Humidity;BMP_temperature;BMP_pressure;BME280_temperature;BME280_humidity;BME280_pressure;Samples;Min_cycle;Max_cycle;Signal;HPM_P1;HPM_P2
2022/10/09 00:00:00;;;;;;;0.70;0.60;;;16.30;98.00;;;;;;4999763;28;20045;-82
2022/10/09 00:02:34;;;;;;;1.10;1.00;;;16.20;98.00;;;;;;5016097;28;20065;-81
2022/10/09 00:08:22;;;;;;;1.10;1.00;;;16.10;98.00;;;;;;5017263;28;20021;-81
2022/10/09 00:10:57;;;;;;;1.75;1.02;;;15.90;98.00;;;;;;5015865;28;20407;-81
2022/10/09 00:13:32;;;;;;;1.35;1.25;;;15.90;98.00;;;;;;5016020;28;20010;-81
2022/10/09 00:22:44;;;;;;;1.42;1.20;;;15.80;98.00;;;;;;5017169;28;20357;-82
2022/10/09 00:28:32;;;;;;;0.73;0.70;;;15.80;98.00;;;;;;5017196;28;20053;-81
2022/10/09 00:31:08;;;;;;;2.13;1.08;;;15.90;98.00;;;;;;5013913;28;20069;-82
2022/10/09 00:33:44;;;;;;;0.77;0.38;;;15.90;98.00;;;;;;5015702;28;20030;-80
2022/10/09 00:39:41;;;;;;;0.98;0.77;;;16.10;98.00;;;;;;5016991;28;20062;-81
2022/10/09 00:42:16;;;;;;;0.93;0.30;;;16.20;98.00;;;;;;5015454;28;20026;-81
2022/10/09 00:45:17;;;;;;;0.60;0.50;;;16.20;98.00;;;;;;5015720;28;20018;-81
2022/10/09 00:47:49;;;;;;;1.40;1.27;;;16.20;98.00;;;;;;5015463;28;20018;-82
2022/10/09 00:53:37;;;;;;;0.45;0.45;;;16.10;98.00;;;;;;5016949;28;20024;-81
2022/10/09 00:59:35;;;;;;;0.30;0.30;;;16.00;98.00;;;;;;5016673;28;20017;-80
2022/10/09 01:02:10;;;;;;;0.20;0.20;;;16.00;98.00;;;;;;5015479;28;20028;-81
2022/10/09 01:08:52;;;;;;;0.95;0.57;;;16.10;98.00;;;;;;5016837;28;20033;-81
2022/10/09 01:15:03;;;;;;;0.45;0.32;;;16.10;98.00;;;;;;4995169;28;20032;-80
2022/10/09 01:17:55;;;;;;;0.43;0.40;;;16.20;97.40;;;;;;4995003;28;20322;-82
2022/10/09 01:21:09;;;;;;;0.50;0.50;;;16.20;97.20;;;;;;4996477;28;20061;-82
2022/10/09 01:27:52;;;;;;;0.40;0.30;;;16.40;98.00;;;;;;4979488;28;20077;-81
2022/10/09 01:30:28;;;;;;;0.47;0.47;;;16.50;97.80;;;;;;4978935;28;20385;-81
2022/10/09 01:33:46;;;;;;;0.30;0.25;;;16.40;96.70;;;;;;4978873;28;20054;-81
2022/10/09 01:39:50;;;;;;;0.20;0.20;;;16.30;97.40;;;;;;4979019;28;20407;-82
2022/10/09 01:42:27;;;;;;;0.43;0.40;;;16.20;97.30;;;;;;4978655;28;20543;-81
2022/10/09 01:48:23;;;;;;;0.30;0.20;;;16.00;97.40;;;;;;4979261;28;20034;-82
2022/10/09 01:51:03;;;;;;;3.90;1.75;;;15.90;98.00;;;;;;4962392;28;20030;-81
2022/10/09 01:53:39;;;;;;;0.30;0.22;;;15.80;98.00;;;;;;4978585;28;20035;-82
2022/10/09 01:59:43;;;;;;;1.15;0.98;;;15.80;97.50;;;;;;5006953;28;20353;-81
2022/10/09 02:02:19;;;;;;;0.28;0.25;;;15.70;98.00;;;;;;5019344;28;20018;-81
2022/10/09 02:08:11;;;;;;;0.40;0.30;;;15.80;97.60;;;;;;5019494;28;20033;-81
2022/10/09 02:10:55;;;;;;;0.25;0.20;;;15.80;96.20;;;;;;5018156;28;20383;-81
2022/10/09 02:13:32;;;;;;;0.45;0.45;;;15.90;96.30;;;;;;5019171;28;20402;-81
2022/10/09 02:19:36;;;;;;;0.40;0.32;;;16.00;94.80;;;;;;5019010;28;20047;-81
2022/10/09 02:22:34;;;;;;;0.35;0.28;;;16.20;93.50;;;;;;5018866;28;20018;-81
2022/10/09 02:28:32;;;;;;;0.63;0.40;;;16.50;93.30;;;;;;5018701;28;20024;-81
2022/10/09 02:31:57;;;;;;;0.50;0.30;;;16.50;91.90;;;;;;5015971;28;20034;-81
2022/10/09 02:37:58;;;;;;;0.80;0.75;;;16.70;90.50;;;;;;5019041;28;20088;-81
2022/10/09 02:40:33;;;;;;;0.20;0.20;;;16.90;88.70;;;;;;5017438;28;20314;-81
2022/10/09 02:43:08;;;;;;;0.30;0.20;;;16.90;89.00;;;;;;5001387;28;20033;-82
2022/10/09 02:49:08;;;;;;;0.40;0.30;;;16.90;89.00;;;;;;5018886;28;20096;-81
2022/10/09 02:51:43;;;;;;;2.45;0.82;;;16.90;89.10;;;;;;5017299;28;20074;-82
2022/10/09 02:57:37;;;;;;;0.00;0.00;;;16.90;88.60;;;;;;5018880;28;20041;-81
2022/10/09 03:00:18;;;;;;;0.20;0.20;;;16.90;90.00;;;;;;5017124;28;20438;-81
2022/10/09 03:02:53;;;;;;;0.68;0.57;;;17.00;88.20;;;;;;5000711;28;20022;-82
2022/10/09 03:08:44;;;;;;;0.20;0.10;;;17.10;87.70;;;;;;5018117;28;20021;-81
2022/10/09 03:11:21;;;;;;;5.70;1.90;;;17.10;87.10;;;;;;5018166;28;20026;-81
2022/10/09 03:14:06;;;;;;;0.63;0.55;;;17.20;87.80;;;;;;5016942;28;20072;-81
2022/10/09 03:16:32;;;;;;;0.38;0.32;;;17.20;88.00;;;;;;5016794;28;20049;-81
2022/10/09 03:19:16;;;;;;;1.15;0.40;;;17.20;89.40;;;;;;5018077;28;20022;-82
2022/10/09 03:21:50;;;;;;;0.55;0.13;;;17.00;90.20;;;;;;5017737;28;20026;-81
2022/10/09 03:27:38;;;;;;;0.20;0.20;;;16.80;89.70;;;;;;5018215;28;20087;-82
2022/10/09 03:30:13;;;;;;;0.30;0.30;;;16.80;90.00;;;;;;5033283;28;20117;-81
2022/10/09 03:33:38;;;;;;;0.68;0.17;;;16.80;90.50;;;;;;5015960;28;20053;-81
2022/10/09 03:36:05;;;;;;;0.10;0.10;;;16.80;90.60;;;;;;5017392;28;20029;-82
2022/10/09 03:38:40;;;;;;;0.50;0.38;;;16.80;90.70;;;;;;5016696;28;20112;-81
2022/10/09 03:41:15;;;;;;;0.00;0.00;;;16.70;91.00;;;;;;4999282;28;20034;-80
2022/10/09 03:43:50;;;;;;;0.68;0.43;;;16.70;91.40;;;;;;5017568;28;20049;-81
2022/10/09 03:49:50;;;;;;;0.57;0.55;;;16.80;88.30;;;;;;5017631;28;20045;-81
2022/10/09 03:52:25;;;;;;;0.30;0.30;;;17.10;88.20;;;;;;5016269;28;20025;-81
2022/10/09 03:58:13;;;;;;;0.65;0.60;;;17.10;88.40;;;;;;5017577;28;20025;-82
2022/10/09 04:01:01;;;;;;;0.32;0.28;;;17.20;88.40;;;;;;5015976;28;20030;-82
2022/10/09 04:06:49;;;;;;;0.40;0.28;;;17.20;87.60;;;;;;5016946;28;20080;-81
2022/10/09 04:09:24;;;;;;;0.40;0.30;;;17.20;87.30;;;;;;5016042;28;20030;-81
2022/10/09 04:11:59;;;;;;;0.38;0.17;;;17.20;87.20;;;;;;5015929;28;20057;-82
2022/10/09 04:14:34;;;;;;;0.98;0.77;;;17.20;87.30;;;;;;5015884;28;20060;-80
2022/10/09 04:17:00;;;;;;;0.50;0.28;;;17.20;87.50;;;;;;4999536;28;20034;-81
2022/10/09 04:19:35;;;;;;;0.60;0.40;;;17.20;87.20;;;;;;5015930;28;20341;-81
2022/10/09 04:22:10;;;;;;;0.10;0.10;;;17.10;88.10;;;;;;5015864;28;20428;-81
2022/10/09 04:24:44;;;;;;;0.80;0.60;;;17.10;88.90;;;;;;5016868;28;20318;-81
2022/10/09 04:27:10;;;;;;;0.35;0.35;;;17.00;89.00;;;;;;5015611;28;20049;-82
2022/10/09 04:29:51;;;;;;;0.98;0.77;;;16.90;89.50;;;;;;4999537;28;20060;-81
2022/10/09 04:32:26;;;;;;;0.70;0.57;;;16.90;88.80;;;;;;5009197;28;20060;-81
2022/10/09 04:38:14;;;;;;;2.13;1.02;;;17.10;88.00;;;;;;5016821;28;20093;-82
2022/10/09 04:41:28;;;;;;;0.68;0.45;;;17.10;87.50;;;;;;5015581;28;20060;-81
2022/10/09 04:44:03;;;;;;;0.22;0.20;;;17.20;86.70;;;;;;5044976;28;20041;-82
2022/10/09 04:46:29;;;;;;;0.05;0.05;;;17.30;85.10;;;;;;5016699;28;20026;-81
2022/10/09 04:49:13;;;;;;;0.70;0.55;;;17.40;85.30;;;;;;4999299;28;20037;-79
2022/10/09 04:51:48;;;;;;;0.25;0.20;;;17.40;85.80;;;;;;4999545;28;20026;-79
2022/10/09 04:54:23;;;;;;;0.30;0.23;;;17.30;85.70;;;;;;5019490;28;20018;-80
2022/10/09 04:56:49;;;;;;;0.43;0.20;;;17.30;85.80;;;;;;5019545;28;20025;-79
2022/10/09 04:59:33;;;;;;;1.30;0.82;;;17.30;86.20;;;;;;5019631;28;20306;-80
2022/10/09 05:05:21;;;;;;;0.47;0.10;;;17.40;84.90;;;;;;5020613;28;20029;-81
2022/10/09 05:07:46;;;;;;;0.10;0.05;;;17.40;84.70;;;;;;5019405;28;20034;-81
2022/10/09 05:10:21;;;;;;;0.82;0.80;;;17.40;85.10;;;;;;5019264;28;20026;-81
2022/10/09 05:12:57;;;;;;;0.10;0.05;;;17.40;84.60;;;;;;5002942;28;20406;-80
2022/10/09 05:15:35;;;;;;;0.32;0.13;;;17.50;84.10;;;;;;5019033;28;20414;-82
2022/10/09 05:18:01;;;;;;;1.85;0.85;;;17.50;85.40;;;;;;5018977;28;20026;-80
2022/10/09 05:20:40;;;;;;;0.28;0.20;;;17.40;84.20;;;;;;5019127;28;20336;-81
2022/10/09 05:23:15;;;;;;;0.93;0.40;;;17.40;84.90;;;;;;5019007;28;20306;-81
2022/10/09 05:25:57;;;;;;;0.47;0.47;;;17.30;84.80;;;;;;5018714;28;20022;-78
2022/10/09 05:28:33;;;;;;;0.70;0.68;;;17.40;84.50;;;;;;5018890;28;20333;-80
2022/10/09 05:31:24;;;;;;;1.40;0.10;;;17.40;85.10;;;;;;5018939;28;20026;-80
2022/10/09 05:34:00;;;;;;;0.55;0.30;;;17.50;85.60;;;;;;5030313;28;20080;-80
2022/10/09 05:36:26;;;;;;;0.85;0.75;;;17.40;84.50;;;;;;5039684;28;20036;-80
2022/10/09 05:39:11;;;;;;;0.38;0.30;;;17.40;83.60;;;;;;5021975;28;20052;-79
2022/10/09 05:41:46;;;;;;;0.73;0.28;;;17.40;86.40;;;;;;5021899;28;20356;-81
2022/10/09 05:44:21;;;;;;;0.80;0.43;;;17.40;86.10;;;;;;5054805;28;20079;-82
2022/10/09 05:46:47;;;;;;;0.20;0.20;;;17.30;85.70;;;;;;5021888;28;20028;-79
2022/10/09 05:49:31;;;;;;;0.30;0.25;;;17.30;85.40;;;;;;5054947;28;20405;-79
2022/10/09 05:52:06;;;;;;;0.32;0.28;;;17.30;86.80;;;;;;5021512;28;20072;-80
2022/10/09 05:54:40;;;;;;;0.83;0.77;;;17.30;86.30;;;;;;5054832;28;20053;-79
2022/10/09 06:00:40;;;;;;;0.17;0.15;;;17.30;86.90;;;;;;5039380;28;20098;-80
2022/10/09 06:03:15;;;;;;;0.20;0.20;;;17.30;86.90;;;;;;5037735;28;20029;-80
2022/10/09 06:05:50;;;;;;;0.57;0.45;;;17.40;86.00;;;;;;5037577;28;20397;-79
2022/10/09 06:08:25;;;;;;;0.37;0.30;;;17.60;86.10;;;;;;5054484;28;20031;-79
2022/10/09 06:11:30;;;;;;;0.40;0.40;;;17.60;87.80;;;;;;5038099;28;20267;-79
2022/10/09 06:14:07;;;;;;;0.32;0.20;;;17.60;86.40;;;;;;5000602;28;20446;-79
2022/10/09 06:16:35;;;;;;;0.45;0.22;;;17.70;86.30;;;;;;5000731;28;20040;-81
2022/10/09 06:19:12;;;;;;;0.52;0.45;;;17.70;86.50;;;;;;5020181;28;20037;-81
2022/10/09 06:21:47;;;;;;;2.72;1.50;;;17.70;85.70;;;;;;5038771;28;20063;-81
2022/10/09 06:24:28;;;;;;;;;;;17.80;88.30;;;;;;5021477;28;20052;-80
2022/10/09 06:26:54;;;;;;;0.22;0.22;;;17.80;86.90;;;;;;5020968;28;19940;-81
2022/10/09 06:29:29;;;;;;;1.55;0.57;;;17.80;87.50;;;;;;5037636;28;20056;-82
2022/10/09 06:32:04;;;;;;;1.45;0.63;;;17.90;86.80;;;;;;5054091;28;20029;-81
2022/10/09 06:34:42;;;;;;;3.17;0.73;;;17.90;87.50;;;;;;5037147;28;20123;-81
2022/10/09 06:37:08;;;;;;;0.85;0.63;;;18.00;87.50;;;;;;5020837;28;20129;-81
2022/10/09 06:39:52;;;;;;;2.17;1.00;;;18.10;84.50;;;;;;5037348;28;20100;-80
2022/10/09 06:42:27;;;;;;;0.40;0.30;;;18.20;85.30;;;;;;5020832;28;20429;-79
2022/10/09 06:48:15;;;;;;;0.30;0.30;;;18.30;87.00;;;;;;5038703;28;20021;-80
2022/10/09 06:50:50;;;;;;;1.10;0.70;;;18.30;86.80;;;;;;5038653;28;20025;-79
2022/10/09 06:56:37;;;;;;;0.65;0.50;;;18.30;86.70;;;;;;5038359;28;20397;-80
2022/10/09 06:59:12;;;;;;;2.90;1.20;;;18.30;88.10;;;;;;5020467;28;20025;-79
2022/10/09 07:01:50;;;;;;;0.60;0.60;;;18.30;86.00;;;;;;5038005;28;20033;-79
2022/10/09 07:04:25;;;;;;;0.85;0.30;;;18.40;87.20;;;;;;5036852;28;20021;-79
2022/10/09 07:06:50;;;;;;;0.30;0.20;;;18.40;85.50;;;;;;5036919;28;20055;-79
2022/10/09 07:09:35;;;;;;;0.93;0.60;;;18.50;85.10;;;;;;5020217;28;20021;-80
2022/10/09 07:12:09;;;;;;;1.02;0.57;;;18.50;86.20;;;;;;5036838;28;20101;-79
2022/10/09 07:17:57;;;;;;;1.25;0.80;;;18.40;87.00;;;;;;5034587;28;20028;-82
2022/10/09 07:20:43;;;;;;;0.68;0.50;;;18.30;86.70;;;;;;5011791;28;20038;-79
2022/10/09 07:23:21;;;;;;;3.20;0.95;;;18.20;87.70;;;;;;5030836;28;20025;-79
2022/10/09 07:29:22;;;;;;;0.40;0.30;;;18.10;89.00;;;;;;5037994;28;20044;-80
2022/10/09 07:31:57;;;;;;;0.10;0.10;;;18.20;90.20;;;;;;5020169;28;20075;-80
2022/10/09 07:35:23;;;;;;;2.53;0.88;;;18.20;89.00;;;;;;5035750;28;20135;-79
2022/10/09 07:37:50;;;;;;;0.22;0.22;;;18.20;89.40;;;;;;5036343;28;20413;-80
2022/10/09 07:40:35;;;;;;;1.20;0.90;;;18.10;89.40;;;;;;5036292;28;20318;-79
2022/10/09 07:43:10;;;;;;;0.52;0.40;;;18.00;88.90;;;;;;5019635;28;20044;-79
2022/10/09 07:45:45;;;;;;;0.55;0.45;;;18.00;89.40;;;;;;5019624;28;20025;-80
2022/10/09 07:48:20;;;;;;;0.20;0.20;;;18.00;89.60;;;;;;5019655;28;20302;-80
2022/10/09 07:50:56;;;;;;;1.95;0.98;;;18.00;90.10;;;;;;5035980;28;20029;-81
2022/10/09 07:53:31;;;;;;;0.30;0.17;;;18.10;90.10;;;;;;5036918;28;20394;-80
2022/10/09 07:55:56;;;;;;;2.08;1.65;;;18.20;89.70;;;;;;5035959;28;20310;-79
2022/10/09 07:58:37;;;;;;;1.13;0.88;;;18.20;89.70;;;;;;5035962;28;20025;-79
2022/10/09 08:01:12;;;;;;;1.00;0.68;;;18.30;88.50;;;;;;5035896;28;20025;-79
2022/10/09 08:03:48;;;;;;;1.30;0.93;;;18.30;89.30;;;;;;5019446;28;20025;-80
2022/10/09 08:09:51;;;;;;;1.00;0.57;;;18.40;89.20;;;;;;5037136;28;20028;-79
2022/10/09 08:15:50;;;;;;;0.93;0.30;;;18.60;89.70;;;;;;5036979;28;20513;-79
2022/10/09 08:18:25;;;;;;;0.98;0.95;;;18.60;90.60;;;;;;5019162;28;20021;-79
2022/10/09 08:21:06;;;;;;;0.60;0.60;;;18.70;90.50;;;;;;5019101;28;20025;-79
2022/10/09 08:23:41;;;;;;;0.15;0.15;;;18.80;89.20;;;;;;5036634;28;20096;-79
2022/10/09 08:26:18;;;;;;;1.27;0.50;;;18.80;89.40;;;;;;5036517;28;20028;-79
2022/10/09 08:28:56;;;;;;;0.70;0.32;;;18.80;88.80;;;;;;5018777;28;20060;-80
2022/10/09 08:31:32;;;;;;;0.20;0.15;;;18.80;89.10;;;;;;5018985;28;20053;-80
2022/10/09 08:34:07;;;;;;;1.13;0.57;;;18.80;87.10;;;;;;5018421;28;20040;-80
2022/10/09 08:37:22;;;;;;;2.05;0.40;;;18.80;88.00;;;;;;5036728;28;20394;-80
2022/10/09 08:39:57;;;;;;;0.52;0.45;;;18.70;89.00;;;;;;5035263;28;20025;-79
2022/10/09 08:43:03;;;;;;;1.38;0.90;;;18.70;89.10;;;;;;5018802;28;20029;-79
2022/10/09 08:45:40;;;;;;;2.05;0.77;;;18.70;89.40;;;;;;5036107;28;20022;-80
2022/10/09 08:48:21;;;;;;;0.52;0.47;;;18.70;90.10;;;;;;5018830;28;20086;-79
2022/10/09 08:50:57;;;;;;;0.38;0.30;;;18.70;89.40;;;;;;5018892;28;20402;-80
2022/10/09 08:53:50;;;;;;;0.50;0.50;;;18.70;91.00;;;;;;5018767;28;20033;-78
2022/10/09 08:59:47;;;;;;;0.50;0.30;;;18.80;88.20;;;;;;5036418;28;20059;-80
2022/10/09 09:02:46;;;;;;;1.60;0.40;;;19.30;87.80;;;;;;5036111;28;20025;-78
2022/10/09 09:05:29;;;;;;;1.10;0.43;;;19.90;86.70;;;;;;5018586;28;20075;-80
2022/10/09 09:08:49;;;;;;;0.70;0.55;;;20.40;85.60;;;;;;5051724;28;20036;-78
2022/10/09 09:11:53;;;;;;;0.68;0.40;;;20.80;82.40;;;;;;5036405;28;20021;-79
2022/10/09 09:15:22;;;;;;;0.73;0.65;;;21.00;82.20;;;;;;5036404;28;20032;-79
2022/10/09 09:18:28;;;;;;;0.77;0.65;;;21.10;83.50;;;;;;5014305;28;20402;-80
2022/10/09 09:21:45;;;;;;;0.60;0.40;;;21.50;80.80;;;;;;4972031;28;20035;-79
2022/10/09 09:24:43;;;;;;;0.60;0.40;;;21.80;81.20;;;;;;4952270;29;20474;-80
2022/10/09 09:27:20;;;;;;;0.60;0.40;;;21.70;78.50;;;;;;4939949;28;20401;-79
2022/10/09 09:30:44;;;;;;;1.33;0.88;;;21.50;81.40;;;;;;4939995;29;20399;-79
2022/10/09 09:33:45;;;;;;;2.08;1.35;;;21.50;80.70;;;;;;4883470;29;20142;-79
2022/10/09 09:39:47;;;;;;;1.08;0.68;;;21.70;79.90;;;;;;4900533;29;20514;-79
2022/10/09 09:42:22;;;;;;;1.63;0.40;;;21.30;79.20;;;;;;4902670;29;20115;-81
2022/10/09 09:45:06;;;;;;;1.05;0.73;;;21.10;80.50;;;;;;4886581;29;20043;-80
2022/10/09 09:47:42;;;;;;;0.98;0.57;;;20.90;79.80;;;;;;4886668;29;20104;-80
2022/10/09 09:50:09;;;;;;;0.52;0.40;;;21.20;80.50;;;;;;4886410;29;20390;-80
2022/10/09 09:52:45;;;;;;;0.40;0.40;;;21.40;79.30;;;;;;4902418;29;20055;-80
2022/10/09 09:55:44;;;;;;;2.15;0.32;;;21.40;80.90;;;;;;4902194;29;20090;-81
2022/10/09 09:58:20;;;;;;;0.80;0.60;;;21.80;81.20;;;;;;5011485;28;20041;-79
2022/10/09 10:01:05;;;;;;;1.20;0.68;;;22.40;78.20;;;;;;5021414;28;20025;-79
2022/10/09 10:03:57;;;;;;;1.00;0.77;;;22.60;75.70;;;;;;5039112;28;20024;-79
2022/10/09 10:06:24;;;;;;;1.50;0.80;;;22.70;79.20;;;;;;5021382;28;20406;-79
2022/10/09 10:09:13;;;;;;;0.90;0.50;;;22.90;77.00;;;;;;5037899;28;20021;-79
2022/10/09 10:12:18;;;;;;;5.18;0.63;;;23.00;76.00;;;;;;5037887;28;20032;-79
2022/10/09 10:18:17;;;;;;;0.75;0.52;;;23.10;77.80;;;;;;5034991;28;20036;-79
2022/10/09 10:21:35;;;;;;;2.05;0.63;;;23.00;75.80;;;;;;5036462;28;20117;-80
2022/10/09 10:24:17;;;;;;;1.10;0.85;;;23.00;76.50;;;;;;4997327;28;20111;-80
2022/10/09 10:26:48;;;;;;;1.10;0.98;;;22.90;75.10;;;;;;4997643;28;20031;-80
2022/10/09 10:29:43;;;;;;;1.23;1.05;;;22.90;76.10;;;;;;5021081;28;20022;-80
2022/10/09 10:32:48;;;;;;;0.68;0.57;;;22.90;77.00;;;;;;5038555;28;20110;-80
2022/10/09 10:36:14;;;;;;;1.45;0.85;;;23.10;77.50;;;;;;5024987;28;20061;-79
2022/10/09 10:39:40;;;;;;;1.00;0.70;;;23.20;76.30;;;;;;5018671;28;20030;-80
2022/10/09 10:43:05;;;;;;;0.80;0.60;;;23.30;74.90;;;;;;5018622;28;20292;-80
2022/10/09 10:46:14;;;;;;;0.98;0.63;;;23.50;75.10;;;;;;5017351;28;20026;-80
2022/10/09 10:48:52;;;;;;;0.77;0.63;;;23.60;75.20;;;;;;5033884;28;20029;-79
2022/10/09 10:52:11;;;;;;;0.90;0.73;;;23.80;72.60;;;;;;5000627;28;20029;-80
2022/10/09 10:58:15;;;;;;;0.75;0.45;;;24.00;74.40;;;;;;5018624;28;20075;-79
2022/10/09 11:01:12;;;;;;;0.68;0.43;;;23.80;75.40;;;;;;5018240;28;20018;-79
2022/10/09 11:07:24;;;;;;;0.68;0.45;;;23.60;75.80;;;;;;4996972;28;20062;-80
2022/10/09 11:10:49;;;;;;;0.47;0.22;;;23.20;73.80;;;;;;4980143;28;20034;-79
2022/10/09 11:14:09;;;;;;;0.80;0.50;;;22.90;77.40;;;;;;4957672;29;20474;-80
2022/10/09 11:17:07;;;;;;;1.42;0.60;;;22.60;77.50;;;;;;4957221;29;20106;-79
2022/10/09 11:20:15;;;;;;;0.95;0.70;;;22.40;77.00;;;;;;4957443;28;20023;-80
2022/10/09 11:23:31;;;;;;;1.33;0.93;;;22.10;77.60;;;;;;4957694;29;20094;-80
2022/10/09 11:26:44;;;;;;;1.20;1.07;;;21.70;76.40;;;;;;5011324;28;20104;-80
2022/10/09 11:29:38;;;;;;;0.63;0.45;;;22.00;78.00;;;;;;5017896;28;20014;-80
2022/10/09 11:32:40;;;;;;;0.98;0.60;;;22.20;79.80;;;;;;5016528;28;20018;-80
2022/10/09 11:35:20;;;;;;;0.65;0.50;;;22.60;78.20;;;;;;5029093;28;20053;-80
2022/10/09 11:37:57;;;;;;;0.50;0.30;;;22.80;74.90;;;;;;5036246;28;20021;-80
2022/10/09 11:40:47;;;;;;;0.93;0.57;;;22.80;75.40;;;;;;5037195;28;20029;-80
2022/10/09 11:43:53;;;;;;;0.98;0.75;;;22.80;78.00;;;;;;5037254;28;20018;-79
2022/10/09 11:47:11;;;;;;;0.47;0.35;;;22.90;75.40;;;;;;5036278;28;20037;-80
2022/10/09 11:49:52;;;;;;;0.68;0.45;;;22.80;76.00;;;;;;5037265;28;20017;-80
2022/10/09 11:52:55;;;;;;;0.65;0.40;;;22.90;76.80;;;;;;5019762;28;20029;-80
2022/10/09 11:55:32;;;;;;;3.63;0.95;;;23.10;77.40;;;;;;5036850;28;20024;-80
2022/10/09 11:58:49;;;;;;;1.67;0.82;;;23.20;77.50;;;;;;5019482;28;20036;-79
2022/10/09 12:01:31;;;;;;;0.90;0.68;;;23.20;76.80;;;;;;4995368;28;20045;-80
2022/10/09 12:04:30;;;;;;;0.50;0.38;;;23.20;75.60;;;;;;4979335;28;20026;-80
2022/10/09 12:07:00;;;;;;;1.17;0.60;;;23.00;74.90;;;;;;4968109;28;20038;-80
2022/10/09 12:09:42;;;;;;;2.90;1.10;;;22.80;75.90;;;;;;4979368;28;20403;-80
2022/10/09 12:12:17;;;;;;;0.22;0.22;;;22.70;78.40;;;;;;4995643;28;20426;-79
2022/10/09 12:14:52;;;;;;;1.52;1.13;;;22.50;79.10;;;;;;4995418;28;20403;-80
2022/10/09 12:17:21;;;;;;;0.77;0.60;;;22.20;78.70;;;;;;4980056;28;20019;-80
2022/10/09 12:20:04;;;;;;;1.00;0.85;;;22.20;80.20;;;;;;5051885;28;20037;-79
2022/10/09 12:22:44;;;;;;;0.65;0.40;;;22.00;78.70;;;;;;5019348;28;20045;-80
2022/10/09 12:29:01;;;;;;;1.20;1.10;;;21.60;79.30;;;;;;5037250;28;20083;-80
2022/10/09 12:31:40;;;;;;;1.83;1.15;;;21.50;77.50;;;;;;5036527;28;20335;-80
2022/10/09 12:35:00;;;;;;;0.80;0.50;;;21.40;81.80;;;;;;5018338;28;20057;-80
2022/10/09 12:37:34;;;;;;;1.55;0.93;;;21.50;80.70;;;;;;5036259;28;20025;-80
2022/10/09 12:40:46;;;;;;;0.80;0.60;;;21.50;79.90;;;;;;5036318;28;20040;-79
2022/10/09 12:43:22;;;;;;;0.73;0.55;;;21.60;80.20;;;;;;5018060;28;20345;-79
2022/10/09 12:45:52;;;;;;;0.82;0.57;;;21.60;78.00;;;;;;5017976;28;20446;-81
2022/10/09 12:48:29;;;;;;;0.75;0.30;;;21.60;80.70;;;;;;5018076;28;20033;-79
2022/10/09 12:51:24;;;;;;;1.10;0.73;;;21.40;77.10;;;;;;5018142;28;20053;-79
2022/10/09 12:54:06;;;;;;;2.17;0.65;;;21.30;79.10;;;;;;5001713;28;20034;-80
2022/10/09 12:56:37;;;;;;;0.50;0.30;;;21.30;81.10;;;;;;5017943;28;20021;-80
2022/10/09 12:59:12;;;;;;;1.48;0.50;;;21.30;80.70;;;;;;5036143;28;20017;-79
2022/10/09 13:01:51;;;;;;;0.80;0.65;;;21.20;79.20;;;;;;5032251;28;20026;-79
2022/10/09 13:07:39;;;;;;;0.80;0.43;;;20.80;81.00;;;;;;5036284;28;20028;-80
2022/10/09 13:10:22;;;;;;;0.47;0.32;;;20.60;81.30;;;;;;5036032;28;20017;-79
2022/10/09 13:12:58;;;;;;;2.30;0.90;;;20.70;80.70;;;;;;5068743;28;20021;-79
2022/10/09 13:19:28;;;;;;;0.32;0.22;;;20.80;79.10;;;;;;5049883;28;20469;-79
2022/10/09 13:22:23;;;;;;;1.05;0.70;;;20.80;79.50;;;;;;5075385;28;20079;-79
2022/10/09 13:24:58;;;;;;;0.70;0.55;;;20.80;79.90;;;;;;5041860;28;20405;-78
2022/10/09 13:27:33;;;;;;;0.45;0.40;;;20.70;80.00;;;;;;5058613;28;20028;-80
2022/10/09 13:30:10;;;;;;;1.02;0.93;;;20.60;79.30;;;;;;5075404;28;20039;-80
2022/10/09 13:32:45;;;;;;;0.68;0.40;;;20.60;77.00;;;;;;5041918;28;20021;-79
2022/10/09 13:35:41;;;;;;;0.60;0.30;;;20.60;80.30;;;;;;5057670;28;20017;-80
2022/10/09 13:38:19;;;;;;;1.38;0.90;;;20.60;81.00;;;;;;5035261;28;20041;-80
2022/10/09 13:40:56;;;;;;;0.55;0.38;;;20.60;80.90;;;;;;5002388;28;20389;-80
2022/10/09 13:43:31;;;;;;;8.18;0.90;;;20.70;82.60;;;;;;5019791;28;20049;-79
2022/10/09 13:49:28;;;;;;;0.43;0.30;;;20.60;82.00;;;;;;5019834;28;20086;-79
2022/10/09 13:52:03;;;;;;;1.25;1.13;;;20.60;82.40;;;;;;5002235;28;20024;-80
2022/10/09 13:57:52;;;;;;;1.60;0.98;;;20.40;81.60;;;;;;5019789;28;20103;-79
2022/10/09 14:00:27;;;;;;;1.55;0.60;;;20.30;83.60;;;;;;5019153;28;20026;-79
2022/10/09 14:03:03;;;;;;;0.60;0.50;;;20.30;83.60;;;;;;5034888;28;20068;-79
2022/10/09 14:05:39;;;;;;;4.72;1.65;;;20.30;85.80;;;;;;5017976;28;20257;-80
2022/10/09 14:08:14;;;;;;;0.93;0.57;;;20.30;80.70;;;;;;5019209;28;20037;-79
2022/10/09 14:14:02;;;;;;;0.50;0.40;;;20.20;84.20;;;;;;5019087;28;20021;-80
2022/10/09 14:16:29;;;;;;;0.70;0.60;;;20.20;80.70;;;;;;5001597;28;20029;-78
2022/10/09 14:19:37;;;;;;;0.60;0.40;;;20.10;84.20;;;;;;5019120;28;20096;-79
2022/10/09 14:22:13;;;;;;;0.93;0.50;;;20.10;83.30;;;;;;5017699;28;20034;-79
2022/10/09 14:28:01;;;;;;;1.15;0.80;;;20.10;83.60;;;;;;5019223;28;20424;-80
2022/10/09 14:30:49;;;;;;;0.45;0.38;;;20.10;84.20;;;;;;5019104;28;20034;-79
2022/10/09 14:33:24;;;;;;;0.73;0.60;;;20.10;84.40;;;;;;5001624;28;20108;-79
2022/10/09 14:43:13;;;;;;;2.47;1.30;;;19.80;85.40;;;;;;5032434;28;20041;-79
2022/10/09 14:46:24;;;;;;;0.63;0.47;;;19.70;84.20;;;;;;5037139;28;20034;-79
2022/10/09 14:49:05;;;;;;;1.27;1.10;;;19.60;82.60;;;;;;5016597;28;20142;-79
2022/10/09 14:51:41;;;;;;;0.65;0.52;;;19.40;86.10;;;;;;5016635;28;20030;-80
2022/10/09 14:54:15;;;;;;;1.33;0.82;;;19.30;84.70;;;;;;5000097;28;20394;-79
2022/10/09 14:56:41;;;;;;;0.65;0.43;;;19.30;83.80;;;;;;5000063;28;20034;-79
2022/10/09 14:59:16;;;;;;;0.52;0.50;;;19.20;85.90;;;;;;5000058;28;20029;-80
2022/10/09 15:01:51;;;;;;;2.40;1.27;;;19.00;84.00;;;;;;4983688;28;20022;-79
2022/10/09 15:07:38;;;;;;;4.35;0.80;;;19.00;84.10;;;;;;5016440;28;20064;-80
2022/10/09 15:10:13;;;;;;;1.45;1.15;;;18.90;84.80;;;;;;4983540;28;20038;-80
2022/10/09 15:12:48;;;;;;;0.90;0.73;;;18.90;85.20;;;;;;4983656;28;20100;-79
2022/10/09 15:19:33;;;;;;;1.10;0.52;;;18.80;85.40;;;;;;5016194;28;20306;-80
2022/10/09 15:22:59;;;;;;;0.93;0.60;;;18.80;86.20;;;;;;5004189;28;20473;-78
2022/10/09 15:29:02;;;;;;;0.35;0.32;;;18.70;86.20;;;;;;5037663;28;20087;-79
2022/10/09 15:31:39;;;;;;;0.20;0.15;;;18.70;83.60;;;;;;5037444;28;20017;-78
2022/10/09 15:34:18;;;;;;;2.70;1.30;;;18.60;86.50;;;;;;5037277;28;20465;-78
2022/10/09 15:36:44;;;;;;;0.10;0.10;;;18.50;84.00;;;;;;5036420;28;20021;-79
2022/10/09 15:39:19;;;;;;;1.17;0.85;;;18.50;84.10;;;;;;5035646;28;20037;-78
2022/10/09 15:41:54;;;;;;;0.60;0.37;;;18.50;85.10;;;;;;5019892;28;20041;-79
2022/10/09 15:44:29;;;;;;;0.70;0.47;;;18.40;83.30;;;;;;5052757;28;20029;-78
2022/10/09 15:46:55;;;;;;;0.98;0.90;;;18.40;83.90;;;;;;5052811;28;20064;-79
2022/10/09 15:49:36;;;;;;;0.47;0.35;;;18.40;83.50;;;;;;5037313;28;20103;-78
2022/10/09 15:52:11;;;;;;;0.20;0.13;;;18.30;83.00;;;;;;5036009;28;20111;-79
2022/10/09 15:57:58;;;;;;;0.28;0.20;;;18.20;84.30;;;;;;5037224;28;20294;-78
2022/10/09 16:00:47;;;;;;;0.13;0.10;;;18.20;84.10;;;;;;5052191;28;20025;-78
2022/10/09 16:03:22;;;;;;;0.70;0.38;;;18.10;85.30;;;;;;5036893;28;20018;-80
2022/10/09 16:09:23;;;;;;;1.48;0.95;;;18.10;85.40;;;;;;5037213;28;20083;-78
2022/10/09 16:11:58;;;;;;;0.35;0.35;;;18.00;85.20;;;;;;5034608;28;20025;-79
2022/10/09 16:14:33;;;;;;;1.27;1.00;;;18.00;85.80;;;;;;5035522;28;20034;-80
2022/10/09 16:16:58;;;;;;;0.35;0.32;;;17.90;86.20;;;;;;5035695;28;20306;-79
2022/10/09 16:20:14;;;;;;;1.65;0.70;;;17.90;86.10;;;;;;5050538;28;20033;-79
2022/10/09 16:22:49;;;;;;;1.92;0.70;;;17.80;86.30;;;;;;5072279;28;20122;-79
2022/10/09 16:28:37;;;;;;;3.85;0.60;;;17.70;85.90;;;;;;5056646;28;20067;-80
2022/10/09 16:31:24;;;;;;;0.40;0.35;;;17.60;86.50;;;;;;5038887;28;20025;-78
2022/10/09 16:34:00;;;;;;;0.20;0.20;;;17.50;87.00;;;;;;5038735;28;20029;-79
2022/10/09 16:37:22;;;;;;;0.40;0.22;;;17.40;87.20;;;;;;5072278;28;20025;-78
2022/10/09 16:39:56;;;;;;;3.03;1.08;;;17.30;87.20;;;;;;5056169;28;20037;-81
2022/10/09 16:42:31;;;;;;;0.55;0.40;;;17.20;88.20;;;;;;5072250;28;20344;-80
2022/10/09 16:48:34;;;;;;;1.02;0.50;;;16.90;89.00;;;;;;5057828;28;20101;-79
2022/10/09 16:51:12;;;;;;;0.38;0.38;;;16.70;89.10;;;;;;5060517;28;20035;-79
2022/10/09 16:53:49;;;;;;;0.32;0.30;;;16.70;89.60;;;;;;5042708;28;20021;-79
2022/10/09 16:56:18;;;;;;;0.55;0.32;;;16.60;89.90;;;;;;5076055;28;20025;-79
2022/10/09 16:58:56;;;;;;;0.75;0.70;;;16.50;90.20;;;;;;5042601;28;20049;-79
2022/10/09 17:01:34;;;;;;;0.10;0.10;;;16.50;90.80;;;;;;5042312;28;20032;-81
2022/10/09 17:04:11;;;;;;;0.35;0.35;;;16.40;91.20;;;;;;5042440;28;20025;-81
2022/10/09 17:06:40;;;;;;;0.43;0.40;;;16.30;91.90;;;;;;5075908;28;20437;-81